Terminal Aerodrome Forecast
Issued by NWS

Home | Current Version | Previous Version | Text Only | Print | Product List | Glossary On
Versions: 1 2 3 4 5 6 7 8 9 10 11 12 13 14 15 16 17 18
000
FTUS43 KBIS 240525
TAFMOT
TAF
KMOT 240525Z 2406/2506 17009KT P6SM FEW250
     FM241400 16020G29KT P6SM FEW250
     FM242000 16023G31KT P6SM SCT200
     FM250100 16017KT P6SM BKN110
     FM250400 18010KT P6SM -SHRA OVC050=

USA.gov is the U.S. government's official web portal to all federal, state and local government web resources and services.